« Back
NWS Peachtree City, Ga » Text Product » MCN Terminal Aerodrome Forecast


Printer-friendly Version
Current Version              Previous Versions:   1  2  3  4  5  6  7  8  9  

Terminal Aerodrome Forecast

174
FTUS42 KFFC 181100
TAFMCN
TAF
KMCN 181123Z 1812/1912 33004KT 2SM BR OVC004
     FM181400 04005KT P6SM BKN008
     FM181500 03005KT P6SM SCT025
     FM181700 34006KT P6SM SCT045
     FM190000 35005KT P6SM FEW050
     FM190600 04003KT 6SM BR SCT250=

USA.gov is the U.S. government's official web portal to all federal, state and local government web resources and services.